createdAt,value
2019-04-05T00:00:15.118Z,39.83
2019-04-05T00:02:45.359Z,40.33
2019-04-05T00:05:16.515Z,39.47
2019-04-05T00:07:48.445Z,39.10
2019-04-05T00:10:19.585Z,39.20
2019-04-05T00:12:49.512Z,39.20
2019-04-05T00:15:19.232Z,39.23
2019-04-05T00:17:48.884Z,39.00
2019-04-05T00:20:18.579Z,39.43
2019-04-05T00:22:48.229Z,39.57
2019-04-05T00:25:17.881Z,38.33
2019-04-05T00:27:48.944Z,39.43
2019-04-05T00:30:19.002Z,39.10
2019-04-05T00:32:48.871Z,39.90
2019-04-05T00:35:19.838Z,39.33
2019-04-05T00:37:49.688Z,39.07
2019-04-05T00:40:19.798Z,39.70
2019-04-05T00:42:49.460Z,39.53
2019-04-05T00:45:27.902Z,39.03
2019-04-05T00:47:51.015Z,39.33
2019-04-05T00:50:21.103Z,39.43
2019-04-05T00:52:50.783Z,40.00
2019-04-05T00:55:20.437Z,39.57
2019-04-05T00:57:53.817Z,38.83
2019-04-05T01:00:23.652Z,39.67
2019-04-05T01:02:53.320Z,39.50
2019-04-05T01:05:23.064Z,38.53
2019-04-05T01:07:52.719Z,39.20
2019-04-05T01:10:22.669Z,40.20
2019-04-05T01:12:52.601Z,39.80
2019-04-05T01:15:22.260Z,39.60
2019-04-05T01:17:52.026Z,39.67
2019-04-05T01:20:22.986Z,39.30
2019-04-05T01:22:52.662Z,39.20
2019-04-05T01:25:23.122Z,39.53
2019-04-05T01:27:53.491Z,39.70
2019-04-05T01:30:23.150Z,40.00
2019-04-05T01:32:52.823Z,39.63
2019-04-05T01:35:41.872Z,39.10
2019-04-05T01:38:12.125Z,39.23
2019-04-05T01:40:45.911Z,38.90
2019-04-05T01:43:16.330Z,38.47
2019-04-05T01:45:53.593Z,38.63
2019-04-05T01:48:19.145Z,38.77
2019-04-05T01:50:48.821Z,38.23
2019-04-05T01:53:19.476Z,38.23
2019-04-05T01:55:49.304Z,38.47
2019-04-05T01:58:18.979Z,38.40
2019-04-05T02:00:48.634Z,38.67
2019-04-05T02:03:18.368Z,38.30
2019-04-05T02:05:48.049Z,38.13
2019-04-05T02:08:17.896Z,38.37
2019-04-05T02:10:48.460Z,38.43
2019-04-05T02:13:18.152Z,38.17
2019-04-05T02:15:47.810Z,38.60
2019-04-05T02:18:17.471Z,37.87
2019-04-05T02:20:47.453Z,37.70
2019-04-05T02:23:17.294Z,38.27
2019-04-05T02:25:47.248Z,37.97
2019-04-05T02:28:17.429Z,38.00
2019-04-05T02:30:47.090Z,38.10
2019-04-05T02:33:16.741Z,37.90
2019-04-05T02:35:46.433Z,37.37
2019-04-05T02:38:16.101Z,37.77
2019-04-05T02:40:47.845Z,37.97
2019-04-05T02:43:21.059Z,38.07
2019-04-05T02:45:53.717Z,38.23
2019-04-05T02:48:24.077Z,38.13
2019-04-05T02:50:58.159Z,38.23
2019-04-05T02:53:31.214Z,37.67
2019-04-05T02:56:03.709Z,37.90
2019-04-05T02:58:34.999Z,37.87
2019-04-05T03:01:04.769Z,37.83
2019-04-05T03:03:35.037Z,37.67
2019-04-05T03:06:06.868Z,38.03
2019-04-05T03:08:37.624Z,38.23
2019-04-05T03:11:14.181Z,37.93
2019-04-05T03:13:51.152Z,38.23
2019-04-05T03:16:39.327Z,38.23
2019-04-05T03:19:06.787Z,37.60
2019-04-05T03:21:40.916Z,37.87
2019-04-05T03:24:15.146Z,37.67
2019-04-05T03:26:49.213Z,37.80
2019-04-05T03:29:19.085Z,38.10
2019-04-05T03:31:49.147Z,37.80
2019-04-05T03:34:19.524Z,37.40
2019-04-05T03:36:51.783Z,37.73
2019-04-05T03:39:23.522Z,37.97
2019-04-05T03:41:54.893Z,37.43
2019-04-05T03:44:24.847Z,37.90
2019-04-05T03:46:57.909Z,37.23
2019-04-05T03:49:28.144Z,37.20
2019-04-05T03:51:58.106Z,37.00
2019-04-05T03:54:27.887Z,37.13
2019-04-05T03:56:57.691Z,37.83
2019-04-05T03:59:27.660Z,36.97
2019-04-05T04:01:57.684Z,36.73
2019-04-05T04:04:27.703Z,36.87
2019-04-05T04:06:57.867Z,36.90
2019-04-05T04:09:27.737Z,37.00
2019-04-05T04:11:57.789Z,37.30
2019-04-05T04:14:28.208Z,37.73
2019-04-05T04:17:11.433Z,37.77
2019-04-05T04:19:30.560Z,37.03
2019-04-05T04:22:19.664Z,37.27
2019-04-05T04:24:49.965Z,37.43
2019-04-05T04:27:19.962Z,37.47
2019-04-05T04:29:50.915Z,37.67
2019-04-05T04:32:20.894Z,37.97
2019-04-05T04:34:51.568Z,37.83
2019-04-05T04:37:22.152Z,37.40
2019-04-05T04:39:52.380Z,38.27
2019-04-05T04:42:23.628Z,37.67
2019-04-05T04:44:56.156Z,38.13
2019-04-05T04:47:27.478Z,39.40
2019-04-05T04:49:59.739Z,38.60
2019-04-05T04:52:33.421Z,38.13
2019-04-05T04:55:03.467Z,39.20
2019-04-05T04:57:33.422Z,38.47
2019-04-05T05:00:04.326Z,38.60
2019-04-05T05:02:35.588Z,38.30
2019-04-05T05:05:08.050Z,38.23
2019-04-05T05:07:38.931Z,38.37
2019-04-05T05:10:10.415Z,37.63
2019-04-05T05:12:40.891Z,37.93
2019-04-05T05:15:13.455Z,38.03
2019-04-05T05:17:43.621Z,37.23
2019-04-05T05:20:13.268Z,37.93
2019-04-05T05:22:43.455Z,37.80
2019-04-05T05:25:13.720Z,38.17
2019-04-05T05:27:44.091Z,38.73
2019-04-05T05:30:15.231Z,38.20
2019-04-05T05:32:45.097Z,38.67
2019-04-05T05:35:14.979Z,38.60
2019-04-05T05:37:46.903Z,38.67
2019-04-05T05:40:17.047Z,38.10
2019-04-05T05:42:46.696Z,38.60
2019-04-05T05:45:17.175Z,37.87
2019-04-05T05:47:52.177Z,37.87
2019-04-05T05:50:18.922Z,37.97
2019-04-05T05:52:50.312Z,38.73
2019-04-05T05:55:19.971Z,38.17
2019-04-05T05:57:54.221Z,37.83
2019-04-05T06:00:24.305Z,38.70
2019-04-05T06:02:53.969Z,38.43
2019-04-05T06:05:23.639Z,38.73
2019-04-05T06:07:53.605Z,38.17
2019-04-05T06:10:23.337Z,38.70
2019-04-05T06:12:53.010Z,39.10
2019-04-05T06:15:42.015Z,38.63
2019-04-05T06:18:12.756Z,39.10
2019-04-05T06:20:43.511Z,39.17
2019-04-05T06:23:13.210Z,38.93
2019-04-05T06:25:42.892Z,38.83
2019-04-05T06:28:12.638Z,38.70
2019-04-05T06:30:42.411Z,39.00
2019-04-05T06:33:12.079Z,38.90
2019-04-05T06:35:42.747Z,37.93
2019-04-05T06:38:12.425Z,38.83
2019-04-05T06:40:43.469Z,39.40
2019-04-05T06:43:13.135Z,39.43
2019-04-05T06:45:42.839Z,38.90
2019-04-05T06:48:19.457Z,39.57
2019-04-05T06:50:47.315Z,39.70
2019-04-05T06:53:16.904Z,39.40
2019-04-05T06:55:46.576Z,40.07
2019-04-05T06:58:28.867Z,39.17
2019-04-05T07:00:56.796Z,39.50
2019-04-05T07:03:25.938Z,39.43
2019-04-05T07:05:55.717Z,39.23
2019-04-05T07:08:26.963Z,39.67
2019-04-05T07:10:56.781Z,39.63
2019-04-05T07:13:27.646Z,39.23
2019-04-05T07:15:57.407Z,38.40
2019-04-05T07:18:34.283Z,39.03
2019-04-05T07:20:58.471Z,43.73
2019-04-05T07:23:28.127Z,38.70
2019-04-05T07:25:57.787Z,39.03
2019-04-05T07:28:27.472Z,39.43
2019-04-05T07:30:57.150Z,39.13
2019-04-05T07:33:28.450Z,38.20
2019-04-05T07:35:58.215Z,38.57
2019-04-05T07:38:27.859Z,39.27
2019-04-05T07:40:57.629Z,39.63
2019-04-05T07:43:27.318Z,39.40
2019-04-05T07:45:56.999Z,39.33
2019-04-05T07:48:26.664Z,39.83
2019-04-05T07:50:57.968Z,39.10
2019-04-05T07:53:27.640Z,39.00
2019-04-05T07:55:57.296Z,39.50
2019-04-05T07:58:30.570Z,39.83
2019-04-05T08:01:01.696Z,39.00
2019-04-05T08:03:31.354Z,39.17
2019-04-05T08:06:02.766Z,39.37
2019-04-05T08:08:51.798Z,39.73
2019-04-05T08:11:22.998Z,39.50
2019-04-05T08:13:55.943Z,39.53
2019-04-05T08:16:31.604Z,39.60
2019-04-05T08:19:01.324Z,38.90
2019-04-05T08:21:32.470Z,39.10
2019-04-05T08:24:02.146Z,39.73
2019-04-05T08:26:32.519Z,40.13
2019-04-05T08:29:02.172Z,38.90
2019-04-05T08:31:31.926Z,39.03
2019-04-05T08:34:01.617Z,39.03
2019-04-05T08:36:32.710Z,39.60
2019-04-05T08:39:02.817Z,39.17
2019-04-05T08:41:32.512Z,39.57
2019-04-05T08:44:02.175Z,39.37
2019-04-05T08:46:31.832Z,39.63
2019-04-05T08:49:10.535Z,39.50
2019-04-05T08:51:32.897Z,39.40
2019-04-05T08:54:02.727Z,39.77
2019-04-05T08:56:33.786Z,40.37
2019-04-05T08:59:04.410Z,39.90
2019-04-05T09:01:34.095Z,39.57
2019-04-05T09:04:04.358Z,39.37
2019-04-05T09:06:34.026Z,39.87
2019-04-05T09:09:05.663Z,39.13
2019-04-05T09:11:35.798Z,39.47
2019-04-05T09:14:05.464Z,40.10
2019-04-05T09:16:35.151Z,39.80
2019-04-05T09:19:05.095Z,39.80
2019-04-05T09:21:40.256Z,39.50
2019-04-05T09:24:07.517Z,39.43
2019-04-05T09:26:37.191Z,39.50
2019-04-05T09:29:09.610Z,40.23
2019-04-05T09:31:39.615Z,39.33
2019-04-05T09:34:09.387Z,39.37
2019-04-05T09:36:39.049Z,39.23
2019-04-05T09:39:15.492Z,39.07
2019-04-05T09:41:43.381Z,39.53
2019-04-05T09:44:13.075Z,39.27
2019-04-05T09:46:47.222Z,39.20
2019-04-05T09:49:14.224Z,39.77
2019-04-05T09:51:43.876Z,39.63
2019-04-05T09:54:13.632Z,40.13
2019-04-05T09:56:43.295Z,39.90
2019-04-05T09:59:14.415Z,39.17
2019-04-05T10:01:44.094Z,40.27
2019-04-05T10:04:13.846Z,39.90
2019-04-05T10:06:43.500Z,39.93
2019-04-05T10:09:13.763Z,39.53
2019-04-05T10:11:43.528Z,39.87
2019-04-05T10:14:13.286Z,39.50
2019-04-05T10:16:43.136Z,40.00
2019-04-05T10:19:12.815Z,39.23
2019-04-05T10:21:42.499Z,39.53
2019-04-05T10:24:12.197Z,39.90
2019-04-05T10:26:41.939Z,40.00
2019-04-05T10:29:11.602Z,39.43
2019-04-05T10:31:42.978Z,40.53
2019-04-05T10:34:12.626Z,39.77
2019-04-05T10:36:42.369Z,40.57
2019-04-05T10:39:12.045Z,40.07
2019-04-05T10:41:41.735Z,40.17
2019-04-05T10:44:13.043Z,39.57
2019-04-05T10:46:42.799Z,40.53
2019-04-05T10:49:15.029Z,39.67
2019-04-05T10:51:43.860Z,40.03
2019-04-05T10:54:13.543Z,39.63
2019-04-05T10:56:43.193Z,39.40
2019-04-05T10:59:13.083Z,40.03
2019-04-05T11:01:42.852Z,39.30
2019-04-05T11:04:12.525Z,40.20
2019-04-05T11:06:42.204Z,39.97
2019-04-05T11:09:11.894Z,40.23
2019-04-05T11:11:41.575Z,40.63
2019-04-05T11:14:14.073Z,40.10
2019-04-05T11:16:42.667Z,40.47
2019-04-05T11:19:12.324Z,40.30
2019-04-05T11:21:43.476Z,40.10
2019-04-05T11:24:13.198Z,40.00
2019-04-05T11:26:44.736Z,40.20
2019-04-05T11:29:14.857Z,39.43
2019-04-05T11:31:56.342Z,39.87
2019-04-05T11:34:16.506Z,40.10
2019-04-05T11:36:47.794Z,39.80
2019-04-05T11:39:18.660Z,39.47
2019-04-05T11:41:52.048Z,39.63
2019-04-05T11:44:23.835Z,39.60
2019-04-05T11:46:55.896Z,39.90
2019-04-05T11:49:28.354Z,39.60
2019-04-05T11:51:58.254Z,39.63
2019-04-05T11:54:27.937Z,40.00
2019-04-05T11:56:59.255Z,40.27
2019-04-05T11:59:29.015Z,40.30
2019-04-05T12:02:04.456Z,39.40
2019-04-05T12:04:34.149Z,40.63
2019-04-05T12:07:06.043Z,40.63
2019-04-05T12:09:35.721Z,40.80
2019-04-05T12:12:05.606Z,40.77
2019-04-05T12:14:36.728Z,40.67
2019-04-05T12:17:09.543Z,40.37
2019-04-05T12:19:38.252Z,40.30
2019-04-05T12:22:09.440Z,40.83
2019-04-05T12:24:39.268Z,40.77
2019-04-05T12:27:08.992Z,40.23
2019-04-05T12:29:38.642Z,39.67
2019-04-05T12:32:08.315Z,40.43
2019-04-05T12:34:38.080Z,40.87
2019-04-05T12:37:07.741Z,40.80
2019-04-05T12:39:37.430Z,40.40
2019-04-05T12:42:11.947Z,40.83
2019-04-05T12:44:40.157Z,40.90
2019-04-05T12:47:10.579Z,40.17
2019-04-05T12:49:40.273Z,40.80
2019-04-05T12:52:21.804Z,40.47
2019-04-05T12:54:41.592Z,40.37
2019-04-05T12:57:11.265Z,39.97
2019-04-05T13:02:33.897Z,40.87
2019-04-05T13:05:00.265Z,40.13
2019-04-05T13:07:29.950Z,41.60
2019-04-05T13:09:59.675Z,40.67
2019-04-05T13:12:29.303Z,40.87
2019-04-05T13:15:11.750Z,40.23
2019-04-05T13:17:31.843Z,40.77
2019-04-05T13:20:01.527Z,39.87
2019-04-05T13:22:32.934Z,40.07
2019-04-05T13:25:02.630Z,40.57
2019-04-05T13:27:32.298Z,40.73
2019-04-05T13:30:01.965Z,40.03
2019-04-05T13:32:31.666Z,40.67
2019-04-05T13:35:01.339Z,39.97
2019-04-05T13:37:31.545Z,40.57
2019-04-05T13:40:01.368Z,39.77
2019-04-05T13:42:31.893Z,39.90
2019-04-05T13:45:01.940Z,39.43
2019-04-05T13:47:32.979Z,39.77
2019-04-05T13:50:02.851Z,40.03
2019-04-05T13:52:32.523Z,40.23
2019-04-05T13:55:02.294Z,39.43
2019-04-05T13:57:32.183Z,39.70
2019-04-05T14:00:01.860Z,39.27
2019-04-05T14:02:32.591Z,39.47
2019-04-05T14:05:02.266Z,39.70
2019-04-05T14:07:34.106Z,39.57
2019-04-05T14:10:04.445Z,38.93
2019-04-05T14:12:34.143Z,40.33
2019-04-05T14:15:05.082Z,40.10
2019-04-05T14:17:34.764Z,39.90
2019-04-05T14:20:08.932Z,39.70
2019-04-05T14:22:37.857Z,39.70
2019-04-05T14:25:08.806Z,39.47
2019-04-05T14:27:38.467Z,39.43
2019-04-05T14:30:09.240Z,39.27
2019-04-05T14:32:38.921Z,40.20
2019-04-05T14:35:09.485Z,39.37
2019-04-05T14:37:39.148Z,39.30
2019-04-05T14:40:09.836Z,39.40
2019-04-05T14:42:39.502Z,39.37
2019-04-05T14:45:10.169Z,40.00
2019-04-05T14:47:41.493Z,39.47
2019-04-05T14:50:11.862Z,39.10
2019-04-05T14:52:41.550Z,39.50
2019-04-05T14:55:11.334Z,39.53
2019-04-05T14:57:41.001Z,39.77
2019-04-05T15:00:14.738Z,39.13
2019-04-05T15:02:44.072Z,39.90
2019-04-05T15:05:19.269Z,40.00
2019-04-05T15:07:51.114Z,39.57
2019-04-05T15:10:25.025Z,39.00
2019-04-05T15:12:53.108Z,39.57
2019-04-05T15:15:24.375Z,39.07
2019-04-05T15:17:54.047Z,39.87
2019-04-05T15:20:25.411Z,39.67
2019-04-05T15:22:55.095Z,39.97
2019-04-05T15:25:26.514Z,39.27
2019-04-05T15:27:56.562Z,39.70
2019-04-05T15:30:26.707Z,39.40
2019-04-05T15:32:58.578Z,39.43
2019-04-05T15:35:28.807Z,39.60
2019-04-05T15:38:01.353Z,38.87
2019-04-05T15:40:30.909Z,39.93
2019-04-05T15:43:01.367Z,39.40
2019-04-05T15:45:31.071Z,39.63
2019-04-05T15:48:00.805Z,39.77
2019-04-05T15:50:30.458Z,40.50
2019-04-05T15:53:02.325Z,40.73
2019-04-05T15:55:33.571Z,41.30
2019-04-05T15:58:03.917Z,40.40
2019-04-05T16:00:45.110Z,41.17
2019-04-05T16:03:15.920Z,41.33
2019-04-05T16:05:46.678Z,41.17
2019-04-05T16:08:20.621Z,40.97
2019-04-05T16:10:51.481Z,41.67
2019-04-05T16:13:21.137Z,41.00
2019-04-05T16:15:50.824Z,41.10
2019-04-05T16:18:20.501Z,41.47
2019-04-05T16:20:50.232Z,41.33
2019-04-05T16:23:19.910Z,40.77
2019-04-05T16:25:49.888Z,40.30
2019-04-05T16:28:19.563Z,40.80
2019-04-05T16:30:49.319Z,41.00
2019-04-05T16:33:19.033Z,40.53
2019-04-05T16:35:48.709Z,39.97
2019-04-05T16:38:18.389Z,40.40
2019-04-05T16:40:48.048Z,40.30
2019-04-05T16:43:17.734Z,40.00
2019-04-05T16:45:47.411Z,41.53
2019-04-05T16:48:17.140Z,40.10
2019-04-05T16:50:46.810Z,40.40
2019-04-05T16:53:16.495Z,39.93
2019-04-05T16:55:46.166Z,39.83
2019-04-05T16:58:15.827Z,40.20
2019-04-05T17:00:45.514Z,39.80
2019-04-05T17:03:15.187Z,40.33
2019-04-05T17:05:49.803Z,39.73
2019-04-05T17:08:19.490Z,39.80
2019-04-05T17:10:49.159Z,40.30
2019-04-05T17:13:18.843Z,39.93
2019-04-05T17:15:48.541Z,40.03
2019-04-05T17:18:18.719Z,40.37
2019-04-05T17:20:48.381Z,40.23
2019-04-05T17:23:18.061Z,40.23
2019-04-05T17:26:06.998Z,40.37
2019-04-05T17:28:36.709Z,40.70
2019-04-05T17:31:06.375Z,41.00
2019-04-05T17:33:36.052Z,40.00
2019-04-05T17:36:06.896Z,40.03
2019-04-05T17:38:36.557Z,40.27
2019-04-05T17:41:06.536Z,41.23
2019-04-05T17:43:36.558Z,40.73
2019-04-05T17:46:06.211Z,40.37
2019-04-05T17:48:35.876Z,40.47
2019-04-05T17:51:08.744Z,41.83
2019-04-05T17:53:39.043Z,41.17
2019-04-05T17:56:10.689Z,40.57
2019-04-05T17:58:41.468Z,40.93
2019-04-05T18:01:11.426Z,41.73
2019-04-05T18:03:41.105Z,40.77
2019-04-05T18:06:10.790Z,41.67
2019-04-05T18:08:40.464Z,40.93
2019-04-05T18:11:10.200Z,40.73
2019-04-05T18:13:40.079Z,41.47
2019-04-05T18:16:11.340Z,40.43
2019-04-05T18:18:45.068Z,41.13
2019-04-05T18:21:16.259Z,40.20
2019-04-05T18:23:46.705Z,41.27
2019-04-05T18:26:18.873Z,40.60
2019-04-05T18:28:50.010Z,41.07
2019-04-05T18:31:20.095Z,40.93
2019-04-05T18:33:50.663Z,41.30
2019-04-05T18:36:24.144Z,40.77
2019-04-05T18:38:54.395Z,40.43
2019-04-05T18:41:24.104Z,40.73
2019-04-05T18:43:53.780Z,40.13
2019-04-05T18:46:23.450Z,39.87
2019-04-05T18:48:53.213Z,40.87
2019-04-05T18:51:22.916Z,40.57
2019-04-05T18:53:53.552Z,41.50
2019-04-05T18:56:23.247Z,40.77
2019-04-05T18:58:52.890Z,40.77
2019-04-05T19:01:22.868Z,40.57
2019-04-05T19:03:52.558Z,40.57
2019-04-05T19:06:22.286Z,41.20
2019-04-05T19:08:51.908Z,40.83
2019-04-05T19:11:21.621Z,40.43
2019-04-05T19:14:01.028Z,39.80
2019-04-05T19:16:24.128Z,40.00
2019-04-05T19:18:53.838Z,40.10
2019-04-05T19:21:23.519Z,41.20
2019-04-05T19:23:54.985Z,41.53
2019-04-05T19:26:24.676Z,40.50
2019-04-05T19:28:54.336Z,40.30
2019-04-05T19:49:03.899Z,40.47
2019-04-05T19:51:33.558Z,40.93
2019-04-05T19:54:05.547Z,40.13
2019-04-05T19:56:35.295Z,40.23
2019-04-05T19:59:05.342Z,40.93
2019-04-05T20:01:35.089Z,40.10
2019-04-05T20:04:04.838Z,40.83
2019-04-05T20:06:34.527Z,40.13
2019-04-05T20:09:08.094Z,40.20
2019-04-05T20:11:37.781Z,40.30
2019-04-05T20:14:07.435Z,40.70
2019-04-05T20:16:37.111Z,40.53
2019-04-05T20:19:06.804Z,39.93
2019-04-05T20:21:36.466Z,40.87
2019-04-05T20:24:14.018Z,40.13
2019-04-05T20:26:40.401Z,40.27
2019-04-05T20:29:10.149Z,41.03
2019-04-05T20:31:39.981Z,40.53
2019-04-05T20:34:09.667Z,40.07
2019-04-05T20:36:39.435Z,40.37
2019-04-05T20:39:09.524Z,40.30
2019-04-05T20:41:39.234Z,40.33
2019-04-05T20:44:08.937Z,40.07
2019-04-05T20:46:38.679Z,39.93
2019-04-05T20:49:08.397Z,40.53
2019-04-05T20:51:38.080Z,40.63
2019-04-05T20:54:07.756Z,40.43
2019-04-05T20:56:38.160Z,40.47
2019-04-05T20:59:08.058Z,41.00
2019-04-05T21:01:38.265Z,40.43
2019-04-05T21:04:09.785Z,40.80
2019-04-05T21:06:40.301Z,40.37
2019-04-05T21:09:10.804Z,41.27
2019-04-05T21:11:41.201Z,41.13
2019-04-05T21:14:12.156Z,40.23
2019-04-05T21:16:42.785Z,40.63
2019-04-05T21:19:13.723Z,41.10
2019-04-05T21:21:44.698Z,40.60
2019-04-05T21:24:15.342Z,41.13
2019-04-05T21:26:46.103Z,41.23
2019-04-05T21:29:16.759Z,41.10
2019-04-05T21:31:48.747Z,40.90
2019-04-05T21:34:18.424Z,41.33
2019-04-05T21:36:48.153Z,42.13
2019-04-05T21:39:17.828Z,41.13
2019-04-05T21:41:47.516Z,41.30
2019-04-05T21:44:17.164Z,41.47
2019-04-05T21:46:46.818Z,40.77
2019-04-05T21:49:16.511Z,40.40
2019-04-05T21:51:48.068Z,41.67
2019-04-05T21:54:17.742Z,40.97
2019-04-05T21:56:47.430Z,42.23
2019-04-05T21:59:21.088Z,42.10
2019-04-05T22:01:52.337Z,42.73
2019-04-05T22:04:22.816Z,41.70
2019-04-05T22:06:54.242Z,41.53
2019-04-05T22:09:24.081Z,42.47
2019-04-05T22:11:53.781Z,41.97
2019-04-05T22:14:23.519Z,43.83
2019-04-05T22:16:53.469Z,43.93
2019-04-05T22:19:23.982Z,44.23
2019-04-05T22:21:54.257Z,44.30
2019-04-05T22:24:25.675Z,44.43
2019-04-05T22:26:55.390Z,45.90
2019-04-05T22:29:27.904Z,45.97
2019-04-05T22:31:57.675Z,45.77
2019-04-05T22:34:27.446Z,48.27
2019-04-05T22:36:58.293Z,46.73
2019-04-05T22:39:28.054Z,48.33
2019-04-05T22:41:57.775Z,48.10
2019-04-05T22:44:37.825Z,48.27
2019-04-05T22:46:59.003Z,48.90
2019-04-05T22:49:28.814Z,50.30
2019-04-05T22:51:58.498Z,49.53
2019-04-05T22:54:28.206Z,50.53
2019-04-05T22:56:57.964Z,50.57
2019-04-05T22:59:27.820Z,50.37
2019-04-05T23:01:57.519Z,50.70
2019-04-05T23:04:27.652Z,50.80
2019-04-05T23:06:57.349Z,52.13
2019-04-05T23:09:27.286Z,52.07
2019-04-05T23:11:57.020Z,52.73
2019-04-05T23:14:26.699Z,53.33
2019-04-05T23:16:58.035Z,51.80
2019-04-05T23:19:29.352Z,50.90
2019-04-05T23:22:00.918Z,52.10
2019-04-05T23:24:30.438Z,52.30
2019-04-05T23:27:01.828Z,52.27
2019-04-05T23:29:31.659Z,51.60
2019-04-05T23:32:01.338Z,54.17
2019-04-05T23:34:31.133Z,53.57
2019-04-05T23:37:00.884Z,53.93
2019-04-05T23:39:30.656Z,52.70
2019-04-05T23:42:00.414Z,53.97
2019-04-05T23:44:30.946Z,52.57
2019-04-05T23:47:02.088Z,54.20
2019-04-05T23:49:31.801Z,53.57
2019-04-05T23:52:01.512Z,53.40
2019-04-05T23:54:31.190Z,52.80
2019-04-05T23:57:00.899Z,53.20
2019-04-05T23:59:31.921Z,52.80
